Pagrindinis puslapis
METAR-TAF:

METAR-TAF

Oro uostai :

Togiak, Aliaska, Jungtinės Amerikos Valstijos

platuma: 59-03N, ilguma: 160-24W, Aukštis: 6 m

Dabartinis oras

Ataskaita buvo paskelbta 47 minutes, ne 05:56 UTC
Vėjas 6 kt iš Šiaurės
Temperatūra -14°C
Drėgmė 78%
Slėgis 1013 hPa
Matomumas: 16.1 km
Su prošvaistėmis ne aukštis 11000 ft

METAR: PATG 280556Z AUTO 01006KT 10SM BKN110 M14/M17 A2991 RMK AO2 SLP228 T11441167 11061 21144 53018 FZRANO

Laikas: 21:43 (06:43 UTC)


TAF: trūkstamas

Orai ataskaitas ir orų prognozės (METAR, TAF).

turimą stotys yra geltonos ir raudonos taškus žemėlapyje.

Perkelti pele per norėdami pamatyti stoties vardą.

Tada spustelėkite, norėdami matyti oro stebėjimo ir prognozės.

Norėdami pakeisti žemėlapį: spustelėkite ant žalios mygtukų su juodo kryžiaus žemyn,; žalią mygtuką su brūkšneliu, jei norite nutolinti; arba žalių rodyklių gretimoms žemėlapius.


METAR-TAF: